Time;durP1;ratioP1;P1;durP2;ratioP2;P2;SDS_P1;SDS_P2;PMS_P1;PMS_P2;Temp;Humidity;BMP_temperature;BMP_pressure;BME280_temperature;BME280_humidity;BME280_pressure;Samples;Min_cycle;Max_cycle;Signal;HPM_P1;HPM_P2
2023/05/05 00:01:59;;;;;;;4.47;3.17;;;11.10;99.90;;;;;;5032955;28;20180;-83
2023/05/05 00:04:24;;;;;;;3.57;3.20;;;11.10;99.90;;;;;;5032937;28;20225;-83
2023/05/05 00:06:50;;;;;;;3.70;3.50;;;11.10;99.90;;;;;;5033198;28;20221;-84
2023/05/05 00:09:16;;;;;;;6.97;3.30;;;11.00;99.90;;;;;;5032236;28;20207;-84
2023/05/05 00:11:42;;;;;;;4.13;3.50;;;11.00;99.90;;;;;;5033824;28;20237;-84
2023/05/05 00:14:08;;;;;;;3.50;3.20;;;11.10;99.90;;;;;;5032682;28;20264;-84
2023/05/05 00:16:33;;;;;;;4.17;3.40;;;11.00;99.90;;;;;;5033214;28;20176;-81
2023/05/05 00:18:59;;;;;;;4.03;3.73;;;11.00;99.90;;;;;;5033785;28;20635;-82
2023/05/05 00:21:26;;;;;;;3.70;3.40;;;11.00;99.90;;;;;;5033186;28;20694;-83
2023/05/05 00:23:52;;;;;;;3.80;3.50;;;11.00;99.90;;;;;;5038616;28;20169;-85
2023/05/05 00:26:18;;;;;;;4.00;3.53;;;10.90;99.90;;;;;;5045145;28;20227;-85
2023/05/05 00:28:44;;;;;;;5.03;3.60;;;10.90;99.90;;;;;;5045370;28;20209;-84
2023/05/05 00:31:09;;;;;;;3.63;3.33;;;10.90;99.90;;;;;;5033149;28;20264;-83
2023/05/05 00:33:35;;;;;;;5.03;3.60;;;10.90;99.90;;;;;;5033716;28;20199;-83
2023/05/05 00:36:01;;;;;;;3.73;3.13;;;10.90;99.90;;;;;;5043567;28;20723;-84
2023/05/05 00:38:27;;;;;;;5.00;3.53;;;10.90;99.90;;;;;;5031420;28;20267;-82
2023/05/05 00:40:53;;;;;;;3.60;3.27;;;10.80;99.90;;;;;;5033708;28;20633;-84
2023/05/05 00:43:19;;;;;;;3.80;3.10;;;10.80;99.90;;;;;;5034905;28;20266;-81
2023/05/05 00:45:46;;;;;;;3.77;3.47;;;10.80;99.90;;;;;;5035862;28;20180;-84
2023/05/05 00:48:13;;;;;;;3.80;3.50;;;10.80;99.90;;;;;;5034479;28;20211;-83
2023/05/05 00:50:41;;;;;;;4.00;3.70;;;10.80;99.90;;;;;;5035830;28;20281;-84
2023/05/05 00:53:07;;;;;;;3.70;3.40;;;10.80;99.90;;;;;;5037115;28;20170;-83
2023/05/05 00:55:34;;;;;;;4.33;3.20;;;10.70;99.90;;;;;;5037829;28;20173;-82
2023/05/05 00:58:03;;;;;;;4.37;3.53;;;10.60;99.90;;;;;;5036966;28;20177;-83
2023/05/05 01:00:29;;;;;;;4.37;3.57;;;10.60;99.90;;;;;;5037650;28;20173;-82
2023/05/05 01:02:55;;;;;;;3.83;3.63;;;10.60;99.90;;;;;;5042353;28;20188;-83
2023/05/05 01:05:22;;;;;;;3.37;3.17;;;10.60;99.90;;;;;;5040465;28;20227;-80
2023/05/05 01:08:03;;;;;;;3.50;3.30;;;10.60;99.90;;;;;;5035525;28;20201;-85
2023/05/05 01:10:37;;;;;;;3.90;3.60;;;10.60;99.90;;;;;;5046072;28;20166;-82
2023/05/05 01:13:15;;;;;;;3.57;3.23;;;10.60;99.90;;;;;;5049041;28;20268;-82
2023/05/05 01:15:52;;;;;;;3.23;3.03;;;10.50;99.90;;;;;;5040921;28;20167;-83
2023/05/05 01:18:37;;;;;;;3.60;3.40;;;10.50;99.90;;;;;;5054366;28;20164;-83
2023/05/05 01:21:09;;;;;;;3.97;3.67;;;10.50;99.90;;;;;;5048021;28;20192;-82
2023/05/05 01:23:53;;;;;;;3.90;3.53;;;10.50;99.90;;;;;;5036139;28;20227;-83
2023/05/05 01:26:38;;;;;;;3.60;3.30;;;10.50;99.90;;;;;;5035701;28;20291;-82
2023/05/05 01:29:22;;;;;;;3.60;3.30;;;10.50;99.90;;;;;;5035464;28;20250;-81
2023/05/05 01:31:59;;;;;;;5.83;3.37;;;10.50;99.90;;;;;;5037273;28;20167;-82
2023/05/05 01:34:31;;;;;;;4.03;3.73;;;10.40;99.90;;;;;;5035446;28;20261;-83
2023/05/05 01:37:04;;;;;;;3.47;3.17;;;10.40;99.90;;;;;;5035264;28;20172;-84
2023/05/05 01:39:33;;;;;;;3.33;3.13;;;10.40;99.90;;;;;;5035467;28;20177;-82
2023/05/05 01:42:05;;;;;;;3.80;3.50;;;10.50;99.90;;;;;;5035336;28;20205;-82
2023/05/05 01:44:33;;;;;;;3.73;3.53;;;10.50;99.90;;;;;;5035624;28;20179;-83
2023/05/05 01:47:00;;;;;;;3.57;3.37;;;10.50;99.90;;;;;;5036565;28;20267;-82
2023/05/05 01:49:27;;;;;;;3.60;3.40;;;10.50;99.90;;;;;;5040471;28;20301;-81
2023/05/05 01:51:55;;;;;;;3.40;3.10;;;10.40;99.90;;;;;;5046604;28;20196;-82
2023/05/05 01:54:23;;;;;;;3.70;3.40;;;10.40;99.90;;;;;;5046753;28;20187;-80
2023/05/05 01:56:50;;;;;;;3.80;3.40;;;10.40;99.90;;;;;;5043784;28;20165;-84
2023/05/05 01:59:17;;;;;;;3.83;3.50;;;10.40;99.90;;;;;;5040394;28;20176;-84
2023/05/05 02:01:46;;;;;;;3.57;3.37;;;10.40;99.90;;;;;;5036250;28;20169;-82
2023/05/05 02:04:13;;;;;;;3.83;3.57;;;10.40;99.90;;;;;;5033393;28;20293;-82
2023/05/05 02:06:42;;;;;;;3.90;3.60;;;10.40;99.90;;;;;;5034730;28;20255;-84
2023/05/05 02:09:11;;;;;;;3.87;3.47;;;10.40;99.90;;;;;;5040133;28;20223;-83
2023/05/05 02:11:38;;;;;;;3.43;3.23;;;10.40;99.90;;;;;;5035039;28;20204;-84
2023/05/05 02:14:06;;;;;;;4.10;3.80;;;10.40;99.90;;;;;;5034438;28;20169;-83
2023/05/05 02:16:33;;;;;;;5.40;3.57;;;10.40;99.90;;;;;;5034550;28;20260;-81
2023/05/05 02:19:03;;;;;;;3.77;3.40;;;10.30;99.90;;;;;;5032940;28;20188;-83
2023/05/05 02:21:30;;;;;;;4.10;3.70;;;10.30;99.90;;;;;;5034436;28;20166;-85
2023/05/05 02:23:57;;;;;;;4.23;3.83;;;10.20;99.90;;;;;;5033673;28;20191;-84
2023/05/05 02:26:25;;;;;;;4.10;3.73;;;10.20;99.90;;;;;;5034418;28;20222;-83
2023/05/05 02:29:06;;;;;;;5.90;4.00;;;10.20;99.90;;;;;;5034256;28;20297;-84
2023/05/05 02:31:37;;;;;;;4.20;3.53;;;10.20;99.90;;;;;;5033114;28;20172;-83
2023/05/05 02:34:04;;;;;;;3.93;3.63;;;10.10;99.90;;;;;;5034381;28;20625;-83
2023/05/05 02:36:32;;;;;;;5.63;3.43;;;10.10;99.90;;;;;;5034231;28;20184;-83
2023/05/05 02:39:06;;;;;;;4.17;3.80;;;10.00;99.90;;;;;;5033979;28;20182;-83
2023/05/05 02:41:35;;;;;;;3.90;3.60;;;10.00;99.90;;;;;;5042702;28;20161;-83
2023/05/05 02:44:03;;;;;;;4.20;3.80;;;9.90;99.90;;;;;;5038194;28;20213;-84
2023/05/05 02:46:30;;;;;;;4.70;3.97;;;9.90;99.90;;;;;;5034355;28;20173;-82
2023/05/05 02:48:58;;;;;;;5.10;3.63;;;10.00;99.90;;;;;;5034093;28;20641;-83
2023/05/05 02:51:24;;;;;;;3.50;3.30;;;9.90;99.90;;;;;;5034075;28;20236;-83
2023/05/05 02:53:51;;;;;;;4.00;3.70;;;9.90;99.90;;;;;;5034202;28;20284;-83
2023/05/05 02:56:34;;;;;;;4.10;3.73;;;10.00;99.90;;;;;;5034569;28;20192;-83
2023/05/05 02:59:28;;;;;;;5.47;4.10;;;10.00;99.90;;;;;;5033608;28;20197;-84
2023/05/05 03:02:05;;;;;;;4.40;3.80;;;10.00;99.90;;;;;;5033623;28;20204;-83
2023/05/05 03:04:38;;;;;;;5.67;3.83;;;10.00;99.90;;;;;;5033435;28;20236;-83
2023/05/05 03:07:37;;;;;;;3.90;3.60;;;10.10;99.90;;;;;;5034141;28;20173;-82
2023/05/05 03:10:05;;;;;;;4.10;3.67;;;10.10;99.90;;;;;;5040538;28;20201;-83
2023/05/05 03:12:52;;;;;;;6.80;4.10;;;10.10;99.90;;;;;;5038387;28;20189;-83
2023/05/05 03:15:24;;;;;;;3.93;3.57;;;10.10;99.90;;;;;;5039191;28;20184;-82
2023/05/05 03:17:51;;;;;;;4.47;3.80;;;9.90;99.90;;;;;;5047248;28;20161;-82
2023/05/05 03:20:17;;;;;;;5.23;3.87;;;9.90;99.90;;;;;;5044659;28;20553;-80
2023/05/05 03:22:44;;;;;;;5.97;4.10;;;10.00;99.90;;;;;;5034320;28;20178;-82
2023/05/05 03:25:10;;;;;;;4.07;3.77;;;10.00;99.90;;;;;;5032216;28;20184;-81
2023/05/05 03:27:35;;;;;;;5.37;4.13;;;10.00;99.90;;;;;;5033072;28;20222;-82
2023/05/05 03:30:01;;;;;;;3.93;3.63;;;9.90;99.90;;;;;;5031950;28;20179;-81
2023/05/05 03:32:29;;;;;;;4.57;3.80;;;9.90;99.90;;;;;;5035123;28;20192;-81
2023/05/05 03:34:55;;;;;;;3.97;3.67;;;9.90;99.90;;;;;;5035429;28;20238;-80
2023/05/05 03:37:21;;;;;;;4.03;3.63;;;9.90;99.90;;;;;;5047974;28;20232;-84
2023/05/05 03:39:46;;;;;;;3.50;3.27;;;9.70;99.90;;;;;;5034639;28;20243;-81
2023/05/05 03:42:12;;;;;;;4.40;4.00;;;9.80;99.90;;;;;;5034332;28;20198;-83
2023/05/05 03:44:38;;;;;;;4.13;3.67;;;9.80;99.90;;;;;;5036390;28;20583;-80
2023/05/05 03:47:04;;;;;;;4.23;3.87;;;9.80;99.90;;;;;;5035206;28;20223;-81
2023/05/05 03:49:30;;;;;;;4.97;3.77;;;9.70;99.90;;;;;;5039796;28;20284;-81
2023/05/05 03:51:55;;;;;;;4.83;3.83;;;9.80;99.90;;;;;;5039732;28;20202;-83
2023/05/05 03:54:21;;;;;;;3.90;3.60;;;9.70;99.90;;;;;;5034507;28;20266;-83
2023/05/05 03:56:47;;;;;;;5.53;4.30;;;9.70;99.90;;;;;;5033788;28;20176;-82
2023/05/05 03:59:12;;;;;;;4.43;4.07;;;9.70;99.90;;;;;;5033225;28;20565;-83
2023/05/05 04:01:38;;;;;;;4.00;3.70;;;9.70;99.90;;;;;;5032109;28;20185;-83
2023/05/05 04:04:04;;;;;;;4.10;3.80;;;9.70;99.90;;;;;;5033092;28;20173;-83
2023/05/05 04:06:30;;;;;;;4.13;3.83;;;9.60;99.90;;;;;;5031753;28;20555;-85
2023/05/05 04:08:56;;;;;;;4.17;3.87;;;9.70;99.90;;;;;;5031451;28;20212;-83
2023/05/05 04:11:22;;;;;;;4.17;3.80;;;9.60;99.90;;;;;;5033215;28;20168;-84
2023/05/05 04:13:48;;;;;;;4.77;4.07;;;9.60;99.90;;;;;;5033146;28;20657;-84
2023/05/05 04:16:15;;;;;;;4.20;3.83;;;9.60;99.90;;;;;;5035313;28;20175;-83
2023/05/05 04:18:41;;;;;;;5.30;3.90;;;9.60;99.90;;;;;;5036956;28;20180;-83
2023/05/05 04:21:06;;;;;;;4.97;4.10;;;9.70;99.90;;;;;;5040550;28;20172;-78
2023/05/05 04:23:32;;;;;;;4.50;4.10;;;9.80;99.90;;;;;;5047135;28;20207;-83
2023/05/05 04:25:58;;;;;;;4.17;3.87;;;9.80;99.90;;;;;;5039697;28;20222;-82
2023/05/05 04:28:23;;;;;;;4.50;4.03;;;9.90;99.90;;;;;;5037576;28;20246;-78
2023/05/05 04:30:49;;;;;;;4.37;3.80;;;9.90;99.90;;;;;;5037133;28;20710;-83
2023/05/05 04:33:15;;;;;;;4.27;3.87;;;10.00;99.90;;;;;;5037665;28;20601;-84
2023/05/05 04:35:40;;;;;;;4.90;4.33;;;10.00;99.90;;;;;;5042259;28;20177;-81
2023/05/05 04:38:06;;;;;;;6.43;4.10;;;10.00;99.90;;;;;;5046445;28;20645;-83
2023/05/05 04:40:32;;;;;;;4.47;4.07;;;10.10;99.90;;;;;;5041628;28;20196;-82
2023/05/05 04:42:58;;;;;;;4.73;4.30;;;10.10;99.90;;;;;;5046473;28;20165;-82
2023/05/05 04:45:23;;;;;;;4.83;4.00;;;10.10;99.90;;;;;;5047998;28;20254;-83
2023/05/05 04:47:49;;;;;;;4.77;4.30;;;10.20;99.90;;;;;;5036452;28;20203;-81
2023/05/05 04:50:15;;;;;;;7.10;4.43;;;10.20;99.90;;;;;;5036612;28;20188;-83
2023/05/05 04:52:41;;;;;;;4.93;4.20;;;10.30;99.90;;;;;;5036189;28;20260;-85
2023/05/05 04:55:09;;;;;;;4.23;3.93;;;10.30;99.90;;;;;;5035691;28;20267;-84
2023/05/05 04:57:35;;;;;;;4.97;4.47;;;10.40;99.90;;;;;;5035648;28;20252;-81
2023/05/05 05:00:03;;;;;;;5.10;4.63;;;10.50;99.90;;;;;;5036633;28;20268;-83
2023/05/05 05:02:29;;;;;;;4.50;4.10;;;10.50;99.90;;;;;;5040048;28;20183;-81
2023/05/05 05:04:54;;;;;;;4.33;4.00;;;10.50;99.90;;;;;;5034427;28;20679;-84
2023/05/05 05:07:20;;;;;;;4.43;4.07;;;10.50;99.90;;;;;;5038037;28;20549;-82
2023/05/05 05:09:46;;;;;;;4.50;4.10;;;10.60;99.90;;;;;;5037291;28;20216;-79
2023/05/05 05:12:12;;;;;;;6.07;4.33;;;10.70;99.90;;;;;;5036484;28;20179;-82
2023/05/05 05:14:38;;;;;;;6.17;4.80;;;10.80;99.90;;;;;;5034522;28;20192;-82
2023/05/05 05:17:05;;;;;;;7.63;4.10;;;11.00;99.90;;;;;;5038088;28;20180;-81
2023/05/05 05:19:31;;;;;;;4.50;4.10;;;10.90;99.90;;;;;;5040768;28;20176;-82
2023/05/05 05:21:56;;;;;;;5.07;4.50;;;11.00;99.90;;;;;;5035186;28;20177;-81
2023/05/05 05:24:24;;;;;;;5.37;3.83;;;11.00;99.90;;;;;;5036235;28;20179;-82
2023/05/05 05:26:50;;;;;;;7.33;5.67;;;11.00;99.90;;;;;;5035929;28;20172;-83
2023/05/05 05:29:16;;;;;;;5.57;4.40;;;11.10;99.90;;;;;;5036516;28;20231;-85
2023/05/05 05:31:42;;;;;;;4.23;3.83;;;11.20;99.90;;;;;;5037303;28;20201;-82
2023/05/05 05:34:07;;;;;;;4.67;3.77;;;11.30;99.90;;;;;;5049677;28;20296;-82
2023/05/05 05:36:33;;;;;;;4.27;3.87;;;11.30;99.90;;;;;;5040247;28;20271;-82
2023/05/05 05:38:59;;;;;;;4.63;4.07;;;11.30;99.90;;;;;;5036196;28;20188;-82
2023/05/05 05:41:25;;;;;;;5.33;4.10;;;11.40;99.90;;;;;;5034233;28;20573;-81
2023/05/05 05:43:50;;;;;;;4.13;3.80;;;11.50;99.90;;;;;;5035646;28;20651;-82
2023/05/05 05:46:17;;;;;;;4.97;4.30;;;11.60;99.90;;;;;;5035068;28;20174;-84
2023/05/05 05:48:42;;;;;;;6.83;4.13;;;11.70;99.90;;;;;;5035105;28;20230;-82
2023/05/05 05:51:08;;;;;;;4.40;4.00;;;11.80;99.90;;;;;;5035058;28;20200;-83
2023/05/05 05:53:34;;;;;;;4.37;3.87;;;12.00;99.90;;;;;;5034917;28;20188;-84
2023/05/05 05:56:00;;;;;;;4.57;4.17;;;12.10;99.90;;;;;;5035200;28;20254;-81
2023/05/05 05:58:26;;;;;;;4.30;3.87;;;12.20;99.90;;;;;;5044144;28;20174;-82
2023/05/05 06:00:51;;;;;;;4.23;3.93;;;12.40;99.90;;;;;;5043476;28;20177;-83
2023/05/05 06:03:18;;;;;;;6.43;3.97;;;12.50;99.90;;;;;;5036365;28;20191;-82
2023/05/05 06:05:46;;;;;;;5.07;3.60;;;12.60;99.90;;;;;;5042800;28;20266;-82
2023/05/05 06:08:12;;;;;;;4.20;3.80;;;12.70;99.90;;;;;;5042196;28;20214;-80
2023/05/05 06:10:38;;;;;;;4.30;3.73;;;12.70;99.90;;;;;;5045151;28;20329;-82
2023/05/05 06:13:04;;;;;;;8.03;4.13;;;12.70;99.90;;;;;;5038531;28;20165;-81
2023/05/05 06:15:30;;;;;;;4.60;4.20;;;12.80;99.90;;;;;;5035006;28;20172;-81
2023/05/05 06:17:55;;;;;;;4.37;3.63;;;13.00;99.90;;;;;;5034426;28;20173;-83
2023/05/05 06:20:21;;;;;;;4.00;3.70;;;13.10;99.90;;;;;;5034403;28;20532;-82
2023/05/05 06:22:47;;;;;;;4.37;4.00;;;13.30;99.90;;;;;;5034321;28;20176;-80
2023/05/05 06:25:13;;;;;;;4.50;4.10;;;13.40;99.90;;;;;;5033846;28;20189;-81
2023/05/05 06:27:38;;;;;;;4.50;4.07;;;13.70;99.90;;;;;;5035063;28;20211;-84
2023/05/05 06:30:08;;;;;;;3.97;3.77;;;13.80;99.90;;;;;;5033613;28;20177;-83
2023/05/05 06:32:33;;;;;;;4.07;3.77;;;13.90;99.90;;;;;;5034351;28;20176;-84
2023/05/05 06:34:59;;;;;;;3.80;3.50;;;14.00;99.90;;;;;;5034962;28;20222;-84
2023/05/05 06:37:25;;;;;;;3.53;3.33;;;14.10;99.60;;;;;;5033874;28;20174;-82
2023/05/05 06:39:51;;;;;;;4.50;4.07;;;14.10;99.90;;;;;;5041279;28;20179;-81
2023/05/05 06:42:17;;;;;;;5.33;4.87;;;14.10;99.90;;;;;;5042723;28;20620;-82
2023/05/05 06:44:43;;;;;;;7.10;3.97;;;14.20;99.90;;;;;;5035805;28;20164;-83
2023/05/05 06:47:08;;;;;;;4.07;3.77;;;14.30;99.40;;;;;;5035037;28;20643;-84
2023/05/05 06:49:34;;;;;;;5.77;5.17;;;14.40;99.40;;;;;;5034356;28;20208;-83
2023/05/05 06:52:00;;;;;;;5.10;3.87;;;14.50;99.40;;;;;;5038473;28;20592;-83
2023/05/05 06:54:26;;;;;;;4.00;3.70;;;14.40;98.90;;;;;;5044247;28;20178;-84
2023/05/05 06:56:51;;;;;;;5.13;3.97;;;14.40;99.10;;;;;;5036159;28;20190;-84
2023/05/05 06:59:17;;;;;;;3.90;3.60;;;14.40;99.10;;;;;;5035000;28;20181;-84
2023/05/05 07:01:43;;;;;;;6.27;3.70;;;14.50;98.70;;;;;;5032942;28;20182;-84
2023/05/05 07:04:09;;;;;;;4.30;3.97;;;14.70;98.90;;;;;;5034192;28;20232;-82
2023/05/05 07:06:34;;;;;;;4.67;4.00;;;14.80;98.80;;;;;;5034311;28;20256;-83
2023/05/05 07:09:00;;;;;;;4.03;3.73;;;15.00;98.50;;;;;;5033963;28;20616;-82
2023/05/05 07:11:26;;;;;;;4.73;3.80;;;14.90;98.30;;;;;;5032902;28;20169;-81
2023/05/05 07:13:51;;;;;;;3.97;3.67;;;15.00;98.30;;;;;;5034199;28;20659;-84
2023/05/05 07:16:17;;;;;;;5.00;4.40;;;15.20;98.10;;;;;;5033981;28;20169;-83
2023/05/05 07:18:43;;;;;;;8.10;4.17;;;15.20;98.00;;;;;;5035490;28;20186;-83
2023/05/05 07:21:09;;;;;;;5.53;4.07;;;15.20;98.00;;;;;;5039278;28;20547;-83
2023/05/05 07:23:36;;;;;;;5.63;3.70;;;15.30;97.70;;;;;;5034653;28;20183;-83
2023/05/05 07:26:02;;;;;;;5.73;4.17;;;15.60;97.80;;;;;;5035175;28;20168;-82
2023/05/05 07:28:28;;;;;;;5.33;4.10;;;15.60;97.10;;;;;;5034851;28;20210;-80
2023/05/05 07:30:54;;;;;;;4.00;3.70;;;15.50;97.10;;;;;;5041457;28;20200;-82
2023/05/05 07:33:19;;;;;;;3.90;3.60;;;15.60;97.10;;;;;;5048384;28;20200;-81
2023/05/05 07:35:45;;;;;;;9.93;4.57;;;15.70;97.10;;;;;;5041631;28;20187;-82
2023/05/05 07:38:11;;;;;;;4.10;3.77;;;15.80;97.10;;;;;;5037978;28;20236;-82
2023/05/05 07:40:37;;;;;;;4.70;4.10;;;15.80;96.90;;;;;;5035772;28;20541;-80
2023/05/05 07:43:03;;;;;;;4.17;3.87;;;15.90;96.80;;;;;;5037760;28;20178;-80
2023/05/05 07:45:30;;;;;;;4.47;4.17;;;15.90;96.60;;;;;;5041909;28;20268;-82
2023/05/05 07:47:56;;;;;;;4.60;4.20;;;16.00;96.50;;;;;;5033407;28;20203;-83
2023/05/05 07:50:22;;;;;;;6.17;3.93;;;15.90;96.40;;;;;;5031568;28;20234;-82
2023/05/05 07:52:48;;;;;;;4.60;4.20;;;16.00;96.50;;;;;;5032972;28;20175;-83
2023/05/05 07:55:14;;;;;;;4.13;3.73;;;16.20;96.70;;;;;;5032976;28;20304;-80
2023/05/05 07:57:39;;;;;;;3.90;3.60;;;16.30;96.30;;;;;;5032443;28;20648;-82
2023/05/05 08:00:06;;;;;;;4.43;4.03;;;16.40;96.30;;;;;;5032981;28;20168;-82
2023/05/05 08:02:32;;;;;;;4.60;4.10;;;16.60;96.30;;;;;;5032991;28;20179;-81
2023/05/05 08:04:57;;;;;;;4.27;3.97;;;16.60;96.40;;;;;;5032645;28;20220;-82
2023/05/05 08:07:23;;;;;;;9.30;4.60;;;16.70;96.30;;;;;;5032900;28;20173;-81
2023/05/05 08:09:49;;;;;;;4.90;3.83;;;16.90;96.10;;;;;;5033084;28;20200;-83
2023/05/05 08:12:17;;;;;;;4.40;4.00;;;17.00;96.40;;;;;;5032978;28;20176;-80
2023/05/05 08:14:43;;;;;;;4.57;4.27;;;17.10;96.50;;;;;;5033105;28;20175;-83
2023/05/05 08:17:09;;;;;;;4.80;4.40;;;17.10;96.50;;;;;;5039112;28;20184;-82
2023/05/05 08:19:35;;;;;;;4.60;4.23;;;17.20;96.40;;;;;;5031856;28;20184;-82
2023/05/05 08:22:00;;;;;;;4.77;4.37;;;17.20;96.60;;;;;;5032826;28;20187;-83
2023/05/05 08:24:26;;;;;;;4.43;4.00;;;17.20;96.80;;;;;;5031606;28;20176;-84
2023/05/05 08:26:53;;;;;;;5.17;4.67;;;17.40;96.70;;;;;;5035574;28;20176;-81
2023/05/05 08:29:19;;;;;;;5.07;4.67;;;17.40;95.90;;;;;;5042416;28;20777;-82
2023/05/05 08:31:45;;;;;;;6.97;4.43;;;17.40;95.70;;;;;;5035015;28;20194;-83
2023/05/05 08:34:11;;;;;;;4.27;3.97;;;17.30;96.10;;;;;;5033904;28;20234;-82
2023/05/05 08:36:36;;;;;;;6.00;4.37;;;17.40;96.30;;;;;;5033520;28;20227;-82
2023/05/05 08:39:02;;;;;;;6.30;4.33;;;17.50;96.30;;;;;;5033364;28;20187;-83
2023/05/05 08:41:28;;;;;;;4.33;4.03;;;17.50;96.60;;;;;;5038398;28;20176;-83
2023/05/05 08:43:54;;;;;;;4.63;4.13;;;17.60;96.50;;;;;;5034208;28;20182;-84
2023/05/05 08:46:20;;;;;;;4.90;4.37;;;17.70;96.30;;;;;;5033564;28;20183;-82
2023/05/05 08:48:48;;;;;;;4.27;3.87;;;17.70;96.50;;;;;;5033250;28;20216;-82
2023/05/05 08:51:19;;;;;;;4.90;4.50;;;17.70;96.80;;;;;;5032500;28;20172;-82
2023/05/05 08:53:55;;;;;;;5.17;3.97;;;17.80;96.80;;;;;;5034131;28;20200;-83
2023/05/05 08:56:21;;;;;;;4.37;3.97;;;17.80;96.80;;;;;;5034114;28;20165;-84
2023/05/05 08:58:48;;;;;;;6.37;4.67;;;18.00;97.00;;;;;;5035055;28;20177;-83
2023/05/05 09:01:15;;;;;;;5.10;4.60;;;18.00;96.50;;;;;;5038762;28;20188;-82
2023/05/05 09:03:42;;;;;;;5.07;4.20;;;18.10;97.00;;;;;;5045696;28;20184;-83
2023/05/05 09:06:08;;;;;;;4.57;3.90;;;18.20;97.00;;;;;;5037117;28;20223;-83
2023/05/05 09:08:38;;;;;;;5.63;4.10;;;18.30;97.20;;;;;;5035386;28;20253;-83
2023/05/05 09:11:05;;;;;;;4.83;4.43;;;18.30;96.80;;;;;;5035962;28;20169;-82
2023/05/05 09:13:33;;;;;;;4.80;4.50;;;18.40;96.60;;;;;;5036095;28;20208;-82
2023/05/05 09:16:01;;;;;;;4.93;4.10;;;18.40;96.90;;;;;;5035938;28;20191;-81
2023/05/05 09:18:29;;;;;;;4.57;4.27;;;18.50;96.30;;;;;;5032834;28;20188;-80
2023/05/05 09:21:20;;;;;;;4.77;4.27;;;18.50;96.50;;;;;;5051816;28;20191;-82
2023/05/05 09:24:14;;;;;;;4.17;3.87;;;18.60;96.40;;;;;;5059569;28;20202;-80
2023/05/05 09:26:47;;;;;;;4.37;3.90;;;18.70;96.50;;;;;;5062700;28;20333;-80
2023/05/05 09:30:04;;;;;;;4.47;4.07;;;18.70;96.60;;;;;;5055804;28;20219;-81
2023/05/05 09:33:01;;;;;;;4.60;4.30;;;18.90;96.90;;;;;;5081541;28;20180;-81
2023/05/05 09:36:05;;;;;;;4.70;4.10;;;18.90;96.30;;;;;;5055582;28;20338;-81
2023/05/05 09:38:54;;;;;;;4.50;4.10;;;19.00;96.30;;;;;;5056592;28;20569;-83
2023/05/05 09:41:49;;;;;;;5.10;4.60;;;19.00;96.20;;;;;;5054713;28;20269;-80
2023/05/05 09:44:16;;;;;;;4.47;4.10;;;19.00;95.90;;;;;;5054865;28;20176;-79
2023/05/05 09:46:54;;;;;;;4.63;4.30;;;18.90;95.70;;;;;;5087042;28;20197;-78
2023/05/05 09:49:24;;;;;;;5.23;3.80;;;19.00;96.00;;;;;;5052788;28;20246;-83
2023/05/05 09:51:51;;;;;;;5.63;4.70;;;19.00;96.20;;;;;;5059321;28;20274;-79
2023/05/05 09:54:32;;;;;;;7.00;5.67;;;19.00;95.60;;;;;;5056169;28;20268;-80
2023/05/05 09:57:05;;;;;;;4.43;4.03;;;18.90;95.50;;;;;;5053205;28;20261;-81
2023/05/05 09:59:37;;;;;;;7.03;4.30;;;18.90;95.10;;;;;;5054326;28;20214;-82
2023/05/05 10:02:12;;;;;;;4.07;3.77;;;18.90;94.90;;;;;;5089349;28;20727;-83
2023/05/05 10:04:38;;;;;;;4.60;4.20;;;19.00;95.20;;;;;;5041285;28;20227;-83
2023/05/05 10:07:03;;;;;;;4.53;4.20;;;19.20;95.50;;;;;;5054814;28;20168;-83
2023/05/05 10:09:32;;;;;;;5.80;5.00;;;19.10;95.50;;;;;;5054241;28;20311;-82
2023/05/05 10:11:59;;;;;;;4.90;4.40;;;19.10;95.10;;;;;;5055096;28;20164;-81
2023/05/05 10:14:26;;;;;;;4.23;3.87;;;19.20;94.60;;;;;;5055634;28;20172;-83
2023/05/05 10:16:54;;;;;;;4.20;3.90;;;19.20;94.70;;;;;;5056491;28;20254;-83
2023/05/05 10:19:23;;;;;;;4.20;3.90;;;19.20;93.40;;;;;;5055118;28;20241;-83
2023/05/05 10:21:53;;;;;;;5.90;3.87;;;19.20;93.70;;;;;;5055749;28;20255;-83
2023/05/05 10:24:37;;;;;;;4.40;4.10;;;19.20;93.80;;;;;;5056261;28;20175;-82
2023/05/05 10:27:12;;;;;;;5.03;3.80;;;19.30;94.70;;;;;;5060652;28;20160;-81
2023/05/05 10:30:02;;;;;;;3.60;3.30;;;19.40;93.90;;;;;;5094947;28;20211;-82
2023/05/05 10:32:39;;;;;;;4.00;3.70;;;19.40;93.80;;;;;;5058576;28;20176;-81
2023/05/05 10:35:08;;;;;;;3.43;3.23;;;19.40;93.80;;;;;;5055705;28;20160;-80
2023/05/05 10:37:37;;;;;;;3.23;3.03;;;19.50;94.20;;;;;;5055437;28;20191;-83
2023/05/05 10:40:03;;;;;;;3.83;3.40;;;19.70;93.30;;;;;;5053838;28;20160;-83
2023/05/05 10:42:30;;;;;;;3.43;3.17;;;19.90;93.50;;;;;;5053691;28;20183;-82
2023/05/05 10:44:56;;;;;;;3.17;2.97;;;20.00;93.20;;;;;;5053796;28;20164;-80
2023/05/05 10:47:23;;;;;;;4.03;3.70;;;20.10;93.60;;;;;;5057254;28;20179;-82
2023/05/05 10:49:54;;;;;;;3.80;3.40;;;20.20;93.90;;;;;;5061821;28;20294;-83
2023/05/05 10:52:36;;;;;;;3.57;3.27;;;20.30;94.40;;;;;;5061277;28;20187;-81
2023/05/05 10:55:40;;;;;;;3.50;3.30;;;20.40;93.40;;;;;;5060817;28;20179;-78
2023/05/05 10:58:06;;;;;;;2.97;2.77;;;20.50;93.20;;;;;;5059183;28;20163;-80
2023/05/05 11:00:37;;;;;;;3.10;2.90;;;20.60;93.20;;;;;;5058504;28;20228;-83
2023/05/05 11:03:15;;;;;;;3.33;3.03;;;20.70;93.00;;;;;;5056458;28;20215;-80
2023/05/05 11:06:03;;;;;;;5.13;3.83;;;20.80;91.90;;;;;;5059286;28;20255;-82
2023/05/05 11:08:40;;;;;;;4.93;3.37;;;20.80;92.10;;;;;;5045072;28;20204;-80
2023/05/05 11:11:07;;;;;;;5.93;5.33;;;20.90;92.30;;;;;;5034887;28;20164;-82
2023/05/05 11:13:34;;;;;;;3.47;3.23;;;20.90;91.90;;;;;;5033047;28;20211;-80
2023/05/05 11:16:01;;;;;;;4.57;4.17;;;20.90;91.80;;;;;;5033999;28;20172;-83
2023/05/05 11:18:36;;;;;;;3.97;3.67;;;20.90;91.70;;;;;;5036083;28;20187;-81
2023/05/05 11:21:14;;;;;;;4.20;3.77;;;21.00;92.50;;;;;;5038857;28;20191;-81
2023/05/05 11:23:43;;;;;;;3.83;3.60;;;21.00;92.30;;;;;;5041887;28;20260;-81
2023/05/05 11:26:10;;;;;;;3.33;3.13;;;21.00;92.60;;;;;;5037822;28;20593;-80
2023/05/05 11:28:58;;;;;;;3.20;3.00;;;21.10;92.70;;;;;;5040424;28;20204;-80
2023/05/05 11:31:23;;;;;;;3.20;3.00;;;21.00;92.50;;;;;;5042136;28;20195;-80
2023/05/05 11:33:50;;;;;;;3.37;3.17;;;20.90;93.00;;;;;;5042871;28;20176;-83
2023/05/05 11:36:18;;;;;;;4.83;3.50;;;21.00;92.90;;;;;;5038473;28;20575;-80
2023/05/05 11:39:06;;;;;;;3.83;3.50;;;21.10;93.10;;;;;;5037585;28;20184;-81
2023/05/05 11:41:32;;;;;;;3.30;3.00;;;21.20;93.40;;;;;;5036113;28;20168;-84
2023/05/05 11:44:10;;;;;;;3.27;3.07;;;21.30;93.00;;;;;;5035833;28;20641;-83
2023/05/05 11:46:49;;;;;;;3.87;3.67;;;21.30;92.30;;;;;;5038197;28;20192;-81
2023/05/05 11:49:45;;;;;;;3.27;3.07;;;21.30;92.90;;;;;;5040282;28;20206;-82
2023/05/05 11:52:12;;;;;;;3.67;3.37;;;21.40;93.50;;;;;;5038922;28;20728;-81
2023/05/05 11:54:46;;;;;;;4.37;3.20;;;21.50;93.70;;;;;;5046273;28;20617;-80
2023/05/05 11:57:13;;;;;;;3.63;3.33;;;21.60;92.70;;;;;;5051161;28;20735;-80
2023/05/05 11:59:52;;;;;;;4.03;3.50;;;21.60;92.00;;;;;;5040067;28;20180;-83
2023/05/05 12:02:18;;;;;;;6.73;6.13;;;21.70;91.90;;;;;;5038188;28;20575;-83
2023/05/05 12:04:45;;;;;;;5.47;4.97;;;21.70;92.20;;;;;;5042765;28;20232;-83
2023/05/05 12:07:19;;;;;;;5.87;5.37;;;21.70;91.60;;;;;;5034950;28;20172;-83
2023/05/05 12:09:46;;;;;;;12.90;8.67;;;21.70;91.20;;;;;;5037141;28;20218;-82
2023/05/05 12:12:13;;;;;;;8.13;6.10;;;21.70;91.10;;;;;;5035106;28;20176;-81
2023/05/05 12:14:50;;;;;;;23.50;17.33;;;21.70;91.40;;;;;;5033284;28;20180;-81
2023/05/05 12:17:20;;;;;;;11.70;10.23;;;21.70;91.70;;;;;;5032746;28;20274;-83
2023/05/05 12:19:53;;;;;;;12.33;9.50;;;21.70;91.90;;;;;;5033085;28;20171;-82
2023/05/05 12:22:24;;;;;;;4.77;4.40;;;21.80;91.50;;;;;;5033306;28;20180;-81
2023/05/05 12:24:54;;;;;;;4.60;4.20;;;21.80;92.20;;;;;;5031545;28;20255;-83
2023/05/05 12:27:20;;;;;;;3.70;3.40;;;21.80;92.40;;;;;;5035622;28;20273;-83
2023/05/05 12:29:46;;;;;;;5.17;3.23;;;21.90;92.00;;;;;;5040511;28;20200;-82
2023/05/05 12:32:22;;;;;;;4.27;3.60;;;21.90;91.70;;;;;;5036496;28;20172;-82
2023/05/05 12:34:53;;;;;;;7.40;6.80;;;21.80;91.00;;;;;;5036188;28;20163;-82
2023/05/05 12:37:19;;;;;;;4.87;4.50;;;21.70;91.30;;;;;;5033893;28;20189;-82
2023/05/05 12:39:45;;;;;;;3.40;3.20;;;21.80;91.30;;;;;;5041197;28;20588;-82
2023/05/05 12:42:11;;;;;;;3.00;2.90;;;21.80;91.50;;;;;;5039455;28;20172;-83
2023/05/05 12:44:38;;;;;;;3.60;3.30;;;21.90;92.00;;;;;;5039972;28;20183;-83
2023/05/05 12:47:04;;;;;;;3.10;2.90;;;21.90;91.50;;;;;;5046336;28;20173;-83
2023/05/05 12:49:33;;;;;;;3.10;3.00;;;21.90;91.00;;;;;;5025561;28;20217;-83
2023/05/05 12:51:59;;;;;;;3.27;3.07;;;21.90;90.90;;;;;;5045542;28;20173;-84
2023/05/05 12:54:29;;;;;;;3.40;3.20;;;21.90;90.90;;;;;;5046256;28;20185;-82
2023/05/05 12:56:58;;;;;;;3.27;2.97;;;21.90;90.60;;;;;;5043718;28;20180;-81
2023/05/05 12:59:23;;;;;;;2.93;2.83;;;21.90;90.80;;;;;;5037676;28;20238;-84